createdAt,value
2018-04-12T00:01:48.837Z,3.22
2018-04-12T00:04:17.703Z,2.90
2018-04-12T00:06:46.603Z,3.67
2018-04-12T00:09:15.538Z,1.70
2018-04-12T00:11:44.409Z,2.00
2018-04-12T00:14:13.287Z,2.17
2018-04-12T00:16:42.267Z,1.70
2018-04-12T00:19:11.146Z,2.15
2018-04-12T00:21:40.031Z,2.47
2018-04-12T00:24:08.940Z,3.92
2018-04-12T00:26:37.821Z,2.90
2018-04-12T00:29:06.698Z,3.50
2018-04-12T00:31:35.559Z,4.10
2018-04-12T00:34:04.423Z,3.40
2018-04-12T00:36:33.317Z,3.22
2018-04-12T00:39:02.275Z,7.28
2018-04-12T00:41:31.139Z,5.15
2018-04-12T00:44:00.000Z,6.87
2018-04-12T00:46:28.858Z,5.12
2018-04-12T00:48:57.965Z,7.22
2018-04-12T00:51:27.043Z,8.27
2018-04-12T00:54:01.786Z,6.93
2018-04-12T00:56:30.651Z,9.40
2018-04-12T00:58:59.515Z,12.10
2018-04-12T01:01:28.375Z,6.78
2018-04-12T01:03:57.238Z,9.63
2018-04-12T01:06:26.143Z,12.68
2018-04-12T01:08:55.013Z,5.60
2018-04-12T01:11:23.895Z,3.67
2018-04-12T01:13:52.763Z,4.68
2018-04-12T01:16:21.633Z,2.65
2018-04-12T01:18:50.550Z,2.40
2018-04-12T01:21:19.415Z,3.67
2018-04-12T01:23:48.278Z,10.20
2018-04-12T01:26:17.469Z,4.62
2018-04-12T01:28:46.329Z,3.35
2018-04-12T01:31:15.204Z,4.70
2018-04-12T01:33:44.080Z,9.38
2018-04-12T01:36:13.018Z,11.70
2018-04-12T01:38:42.117Z,11.60
2018-04-12T01:41:10.995Z,8.63
2018-04-12T01:43:39.876Z,25.12
2018-04-12T01:46:08.764Z,29.02
2018-04-12T01:48:37.634Z,18.85
2018-04-12T01:51:06.511Z,11.95
2018-04-12T01:53:35.439Z,6.72
2018-04-12T01:56:04.338Z,3.92
2018-04-12T01:58:33.221Z,2.40
2018-04-12T02:01:02.098Z,1.60
2018-04-12T02:03:30.955Z,1.85
2018-04-12T02:05:59.967Z,2.37
2018-04-12T02:08:28.853Z,2.62
2018-04-12T02:10:57.732Z,8.90
2018-04-12T02:13:26.782Z,6.90
2018-04-12T02:15:55.646Z,8.38
2018-04-12T02:18:24.553Z,4.03
2018-04-12T02:20:53.451Z,5.22
2018-04-12T02:23:22.337Z,15.48
2018-04-12T02:25:51.211Z,12.23
2018-04-12T02:28:20.088Z,10.13
2018-04-12T02:30:48.951Z,8.02
2018-04-12T02:33:17.820Z,2.85
2018-04-12T02:35:47.013Z,3.50
2018-04-12T02:38:15.883Z,7.40
2018-04-12T02:40:44.761Z,5.35
2018-04-12T02:43:13.618Z,3.60
2018-04-12T02:45:42.577Z,4.78
2018-04-12T02:48:11.609Z,3.20
2018-04-12T02:50:40.529Z,3.37
2018-04-12T02:53:09.377Z,2.67
2018-04-12T02:55:38.426Z,2.55
2018-04-12T02:58:07.293Z,2.33
2018-04-12T03:00:36.168Z,2.72
2018-04-12T03:03:05.027Z,2.97
2018-04-12T03:05:33.883Z,2.05
2018-04-12T03:08:03.199Z,2.15
2018-04-12T03:10:32.064Z,1.58
2018-04-12T03:13:00.923Z,2.30
2018-04-12T03:15:29.783Z,3.08
2018-04-12T03:17:58.646Z,2.97
2018-04-12T03:20:27.847Z,3.08
2018-04-12T03:22:56.734Z,2.58
2018-04-12T03:25:25.645Z,2.10
2018-04-12T03:27:54.512Z,2.22
2018-04-12T03:30:23.384Z,13.05
2018-04-12T03:32:52.525Z,19.25
2018-04-12T03:35:21.408Z,12.70
2018-04-12T03:37:50.282Z,9.48
2018-04-12T03:40:19.139Z,8.00
2018-04-12T03:42:48.086Z,5.20
2018-04-12T03:45:16.999Z,5.68
2018-04-12T03:47:45.867Z,3.85
2018-04-12T03:50:14.747Z,2.65
2018-04-12T03:52:43.872Z,1.83
2018-04-12T03:55:12.736Z,2.00
2018-04-12T03:57:41.598Z,1.50
2018-04-12T04:00:10.459Z,2.45
2018-04-12T04:02:39.346Z,2.67
2018-04-12T04:05:08.493Z,4.57
2018-04-12T04:07:37.363Z,3.25
2018-04-12T04:10:06.293Z,3.55
2018-04-12T04:12:35.551Z,3.90
2018-04-12T04:15:19.319Z,2.00
2018-04-12T04:17:54.131Z,2.97
2018-04-12T04:20:29.771Z,3.25
2018-04-12T04:22:58.645Z,2.85
2018-04-12T04:25:27.904Z,2.20
2018-04-12T04:27:56.762Z,3.05
2018-04-12T04:30:25.614Z,2.25
2018-04-12T04:32:54.471Z,1.92
2018-04-12T04:35:23.443Z,3.17
2018-04-12T04:37:52.544Z,3.65
2018-04-12T04:40:21.425Z,3.67
2018-04-12T04:42:50.340Z,3.30
2018-04-12T04:45:19.234Z,3.15
2018-04-12T04:47:48.109Z,2.95
2018-04-12T04:50:16.968Z,2.83
2018-04-12T04:52:45.840Z,2.97
2018-04-12T04:55:14.714Z,3.17
2018-04-12T04:57:43.879Z,2.35
2018-04-12T05:00:12.787Z,2.87
2018-04-12T05:02:41.659Z,2.17
2018-04-12T05:05:10.765Z,2.30
2018-04-12T05:07:39.637Z,3.70
2018-04-12T05:10:08.526Z,3.40
2018-04-12T05:12:37.469Z,3.35
2018-04-12T05:15:06.359Z,15.38
2018-04-12T05:17:35.250Z,10.30
2018-04-12T05:20:04.142Z,12.95
2018-04-12T05:22:33.035Z,14.48
2018-04-12T05:25:02.302Z,6.22
2018-04-12T05:27:31.190Z,9.00
2018-04-12T05:30:00.093Z,11.18
2018-04-12T05:32:29.033Z,9.00
2018-04-12T05:34:57.939Z,3.62
2018-04-12T05:37:26.839Z,2.50
2018-04-12T05:39:55.722Z,2.03
2018-04-12T05:42:24.610Z,2.00
2018-04-12T05:44:53.639Z,2.37
2018-04-12T05:47:22.718Z,2.25
2018-04-12T05:49:51.606Z,6.10
2018-04-12T05:52:20.720Z,8.35
2018-04-12T05:54:49.619Z,5.40
2018-04-12T05:57:18.503Z,6.03
2018-04-12T05:59:47.400Z,5.30
2018-04-12T06:02:16.287Z,2.87
2018-04-12T06:04:45.203Z,3.87
2018-04-12T06:07:14.095Z,4.00
2018-04-12T06:09:42.995Z,4.32
2018-04-12T06:12:11.878Z,3.70
2018-04-12T06:14:40.767Z,3.60
2018-04-12T06:17:10.031Z,3.30
2018-04-12T06:19:38.915Z,3.92
2018-04-12T06:22:07.807Z,5.40
2018-04-12T06:24:36.781Z,3.35
2018-04-12T06:27:05.667Z,2.53
2018-04-12T06:29:34.583Z,3.75
2018-04-12T06:32:03.472Z,3.28
2018-04-12T06:34:32.479Z,4.28
2018-04-12T06:37:01.363Z,2.75
2018-04-12T06:39:30.259Z,2.85
2018-04-12T06:41:59.202Z,3.80
2018-04-12T06:44:28.099Z,5.35
2018-04-12T06:46:56.987Z,3.65
2018-04-12T06:49:25.926Z,4.85
2018-04-12T06:51:54.819Z,4.57
2018-04-12T06:54:23.715Z,13.40
2018-04-12T06:56:52.599Z,4.50
2018-04-12T06:59:21.487Z,4.50
2018-04-12T07:01:50.405Z,5.70
2018-04-12T07:04:19.291Z,3.78
2018-04-12T07:06:48.178Z,3.67
2018-04-12T07:09:17.075Z,3.05
2018-04-12T07:11:46.100Z,1.70
2018-04-12T07:14:15.015Z,1.80
2018-04-12T07:16:43.899Z,1.80
2018-04-12T07:19:12.794Z,2.28
2018-04-12T07:21:41.688Z,6.20
2018-04-12T07:24:10.579Z,8.25
2018-04-12T07:26:39.782Z,4.43
2018-04-12T07:29:08.670Z,2.80
2018-04-12T07:31:37.565Z,3.20
2018-04-12T07:34:06.507Z,6.65
2018-04-12T07:36:35.416Z,2.80
2018-04-12T07:39:04.319Z,10.02
2018-04-12T07:41:33.215Z,10.35
2018-04-12T07:44:02.095Z,2.80
2018-04-12T07:46:31.184Z,1.90
2018-04-12T07:49:00.082Z,35.65
2018-04-12T07:51:28.972Z,24.98
2018-04-12T07:53:58.302Z,24.00
2018-04-12T07:56:27.190Z,9.60
2018-04-12T07:58:56.195Z,8.48
2018-04-12T08:01:25.084Z,4.57
2018-04-12T08:03:54.162Z,8.38
2018-04-12T08:06:23.070Z,3.95
2018-04-12T08:08:51.955Z,5.22
2018-04-12T08:11:20.851Z,3.42
2018-04-12T08:13:49.944Z,4.25
2018-04-12T08:16:18.890Z,3.83
2018-04-12T08:18:47.750Z,2.78
2018-04-12T08:21:16.639Z,2.12
2018-04-12T08:23:45.554Z,2.28
2018-04-12T08:26:14.601Z,2.30
2018-04-12T08:28:43.490Z,2.25
2018-04-12T08:31:12.376Z,2.05
2018-04-12T08:33:41.260Z,2.83
2018-04-12T08:36:10.438Z,2.37
2018-04-12T08:38:39.326Z,2.58
2018-04-12T08:41:08.210Z,2.35
2018-04-12T08:43:37.095Z,2.90
2018-04-12T08:46:05.980Z,2.30
2018-04-12T08:48:35.223Z,4.65
2018-04-12T08:51:04.107Z,2.03
2018-04-12T08:53:32.991Z,2.00
2018-04-12T08:56:01.875Z,2.53
2018-04-12T08:58:30.767Z,1.95
2018-04-12T09:00:59.698Z,2.35
2018-04-12T09:03:28.656Z,1.80
2018-04-12T09:05:57.551Z,1.85
2018-04-12T09:08:26.444Z,2.50
2018-04-12T09:10:55.331Z,4.28
2018-04-12T09:13:24.286Z,3.00
2018-04-12T09:15:53.180Z,6.70
2018-04-12T09:18:22.070Z,6.50
2018-04-12T09:20:50.994Z,6.78
2018-04-12T09:23:19.899Z,5.15
2018-04-12T09:25:48.934Z,4.55
2018-04-12T09:28:17.822Z,3.50
2018-04-12T09:30:46.712Z,4.12
2018-04-12T09:33:15.663Z,4.10
2018-04-12T09:35:44.605Z,2.60
2018-04-12T09:38:13.661Z,2.87
2018-04-12T09:40:42.543Z,2.03
2018-04-12T09:43:11.438Z,3.15
2018-04-12T09:45:40.328Z,2.42
2018-04-12T09:48:09.214Z,2.40
2018-04-12T09:50:38.307Z,2.47
2018-04-12T09:53:07.199Z,1.70
2018-04-12T09:55:36.094Z,2.42
2018-04-12T09:58:05.234Z,2.60
2018-04-12T10:00:34.126Z,1.45
2018-04-12T10:03:18.091Z,1.77
2018-04-12T10:05:52.827Z,2.05
2018-04-12T10:08:28.431Z,1.80
2018-04-12T10:10:57.320Z,2.42
2018-04-12T10:13:26.203Z,1.95
2018-04-12T10:15:55.098Z,4.70
2018-04-12T10:18:23.990Z,2.60
2018-04-12T10:20:53.055Z,1.90
2018-04-12T10:23:21.951Z,2.47
2018-04-12T10:25:50.859Z,2.42
2018-04-12T10:28:19.810Z,2.45
2018-04-12T10:30:48.699Z,1.85
2018-04-12T10:33:17.583Z,1.90
2018-04-12T10:35:46.519Z,1.87
2018-04-12T10:38:15.409Z,2.05
2018-04-12T10:40:44.419Z,2.15
2018-04-12T10:43:13.495Z,2.95
2018-04-12T10:45:42.390Z,1.85
2018-04-12T10:48:11.274Z,1.80
2018-04-12T10:50:40.188Z,1.75
2018-04-12T10:53:09.070Z,1.73
2018-04-12T10:55:38.148Z,1.55
2018-04-12T10:58:07.032Z,2.80
2018-04-12T11:00:35.930Z,3.40
2018-04-12T11:03:05.009Z,2.92
2018-04-12T11:05:33.895Z,2.50
2018-04-12T11:08:02.991Z,3.60
2018-04-12T11:10:31.878Z,6.05
2018-04-12T11:13:00.775Z,11.43
2018-04-12T11:15:29.699Z,7.00
2018-04-12T11:17:58.595Z,30.67
2018-04-12T11:20:27.666Z,19.80
2018-04-12T11:22:56.570Z,35.40
2018-04-12T11:25:25.489Z,11.90
2018-04-12T11:27:54.575Z,9.15
2018-04-12T11:30:23.468Z,4.60
2018-04-12T11:32:52.354Z,9.65
2018-04-12T11:35:21.647Z,4.03
2018-04-12T11:37:50.535Z,6.20
2018-04-12T11:40:19.577Z,4.25
2018-04-12T11:42:48.461Z,4.37
2018-04-12T11:45:18.311Z,4.50
2018-04-12T11:47:47.361Z,4.40
2018-04-12T11:50:16.254Z,2.15
2018-04-12T11:52:45.282Z,1.73
2018-04-12T11:55:14.393Z,1.42
2018-04-12T11:57:43.293Z,1.98
2018-04-12T12:00:12.197Z,1.70
2018-04-12T12:02:41.469Z,1.92
2018-04-12T12:05:10.381Z,1.70
2018-04-12T12:07:39.293Z,1.50
2018-04-12T12:10:08.193Z,1.75
2018-04-12T12:12:37.096Z,1.80
2018-04-12T12:15:06.056Z,1.73
2018-04-12T12:17:35.110Z,1.30
2018-04-12T12:20:04.005Z,1.40
2018-04-12T12:22:32.895Z,1.62
2018-04-12T12:25:01.779Z,2.25
2018-04-12T12:27:31.194Z,4.32
2018-04-12T12:30:00.270Z,2.62
2018-04-12T12:32:29.175Z,1.80
2018-04-12T12:34:58.066Z,2.10
2018-04-12T12:37:26.954Z,2.30
2018-04-12T12:39:55.867Z,1.90
2018-04-12T12:42:24.753Z,2.85
2018-04-12T12:44:53.642Z,2.10
2018-04-12T12:47:22.549Z,2.20
2018-04-12T12:49:51.450Z,1.90
2018-04-12T12:52:20.717Z,1.35
2018-04-12T12:54:49.641Z,1.58
2018-04-12T12:57:18.552Z,1.67
2018-04-12T12:59:47.455Z,1.90
2018-04-12T13:02:16.353Z,1.33
2018-04-12T13:04:45.388Z,1.95
2018-04-12T13:07:14.301Z,1.40
2018-04-12T13:09:43.213Z,3.45
2018-04-12T13:12:12.119Z,4.47
2018-04-12T13:14:41.033Z,8.93
2018-04-12T13:17:10.241Z,2.97
2018-04-12T13:19:39.365Z,2.65
2018-04-12T13:22:08.280Z,3.10
2018-04-12T13:24:37.188Z,2.25
2018-04-12T13:27:06.089Z,2.60
2018-04-12T13:29:35.052Z,2.35
2018-04-12T13:32:04.184Z,2.17
2018-04-12T13:34:33.102Z,1.80
2018-04-12T13:37:02.012Z,1.45
2018-04-12T13:39:30.915Z,1.73
2018-04-12T13:41:59.965Z,2.05
2018-04-12T13:44:29.265Z,1.80
2018-04-12T13:46:58.164Z,1.45
2018-04-12T13:49:27.457Z,1.50
2018-04-12T13:51:56.361Z,1.77
2018-04-12T13:54:25.273Z,1.50
2018-04-12T13:56:54.177Z,1.70
2018-04-12T13:59:23.076Z,1.67
2018-04-12T14:01:52.352Z,1.37
2018-04-12T14:04:21.252Z,2.65
2018-04-12T14:06:50.285Z,1.30
2018-04-12T14:09:19.187Z,1.58
2018-04-12T14:11:48.091Z,1.73
2018-04-12T14:14:17.028Z,1.45
2018-04-12T14:16:45.936Z,2.05
2018-04-12T14:19:14.837Z,1.55
2018-04-12T14:21:43.741Z,4.30
2018-04-12T14:24:12.645Z,1.60
2018-04-12T14:26:41.605Z,1.67
2018-04-12T14:29:10.509Z,1.40
2018-04-12T14:31:39.444Z,1.73
2018-04-12T14:34:08.357Z,6.18
2018-04-12T14:36:37.272Z,2.30
2018-04-12T14:39:06.494Z,1.85
2018-04-12T14:41:35.413Z,3.85
2018-04-12T14:44:04.317Z,2.58
2018-04-12T14:46:33.258Z,2.40
2018-04-12T14:49:02.185Z,1.85
2018-04-12T14:51:31.085Z,2.03
2018-04-12T14:54:00.021Z,1.77
2018-04-12T14:56:28.920Z,1.42
2018-04-12T14:58:57.821Z,1.40
2018-04-12T15:01:26.722Z,1.48
2018-04-12T15:03:55.630Z,2.97
2018-04-12T15:06:24.749Z,5.72
2018-04-12T15:08:53.785Z,5.95
2018-04-12T15:11:22.688Z,4.93
2018-04-12T15:13:51.594Z,4.10
2018-04-12T15:16:20.508Z,2.58
2018-04-12T15:18:49.513Z,2.00
2018-04-12T15:21:18.399Z,3.85
2018-04-12T15:23:47.301Z,3.62
2018-04-12T15:26:16.206Z,3.03
2018-04-12T15:28:45.145Z,1.85
2018-04-12T15:31:14.045Z,1.98
2018-04-12T15:33:42.949Z,1.60
2018-04-12T15:36:12.039Z,2.00
2018-04-12T15:38:40.944Z,2.00
2018-04-12T15:41:09.849Z,2.10
2018-04-12T15:43:38.751Z,2.20
2018-04-12T15:46:07.653Z,1.35
2018-04-12T15:48:36.871Z,1.50
2018-04-12T15:51:05.800Z,1.70
2018-04-12T15:53:34.705Z,1.42
2018-04-12T15:56:03.653Z,1.60
2018-04-12T15:58:32.553Z,1.70
2018-04-12T16:01:01.593Z,1.55
2018-04-12T16:03:30.492Z,1.50
2018-04-12T16:05:59.396Z,1.33
2018-04-12T16:08:28.807Z,2.08
2018-04-12T16:10:57.709Z,1.42
2018-04-12T16:13:26.613Z,1.58
2018-04-12T16:15:55.573Z,1.90
2018-04-12T16:18:24.469Z,1.98
2018-04-12T16:20:53.369Z,1.62
2018-04-12T16:23:22.310Z,1.30
2018-04-12T16:25:51.217Z,1.65
2018-04-12T16:28:20.121Z,1.17
2018-04-12T16:30:49.078Z,2.28
2018-04-12T16:33:18.000Z,2.40
2018-04-12T16:35:46.916Z,13.15
2018-04-12T16:38:15.836Z,3.60
2018-04-12T16:40:44.801Z,8.68
2018-04-12T16:43:13.743Z,8.23
2018-04-12T16:45:42.646Z,2.97
2018-04-12T16:48:11.547Z,3.12
2018-04-12T16:50:40.493Z,3.37
2018-04-12T16:53:09.400Z,2.35
2018-04-12T16:55:38.303Z,2.12
2018-04-12T16:58:07.473Z,1.80
2018-04-12T17:00:36.373Z,1.83
2018-04-12T17:03:05.282Z,1.92
2018-04-12T17:05:34.369Z,2.00
2018-04-12T17:08:03.297Z,1.90
2018-04-12T17:10:32.201Z,1.80
2018-04-12T17:13:01.113Z,2.33
2018-04-12T17:15:30.156Z,2.50
2018-04-12T17:17:59.062Z,9.20
2018-04-12T17:20:28.075Z,6.50
2018-04-12T17:22:56.982Z,15.73
2018-04-12T17:25:25.893Z,12.02
2018-04-12T17:27:54.954Z,8.02
2018-04-12T17:30:23.861Z,7.95
2018-04-12T17:32:52.769Z,9.60
2018-04-12T17:35:21.669Z,5.97
2018-04-12T17:37:50.596Z,4.65
2018-04-12T17:40:19.556Z,3.42
2018-04-12T17:42:48.456Z,2.83
2018-04-12T17:45:17.356Z,4.50
2018-04-12T17:47:46.261Z,3.05
2018-04-12T17:50:15.165Z,2.92
2018-04-12T17:52:44.120Z,2.87
2018-04-12T17:55:13.024Z,3.62
2018-04-12T17:57:41.955Z,2.75
2018-04-12T18:00:10.986Z,2.60
2018-04-12T18:02:39.896Z,3.00
2018-04-12T18:05:08.804Z,2.45
2018-04-12T18:07:37.713Z,2.90
2018-04-12T18:10:06.624Z,2.87
2018-04-12T18:12:35.800Z,3.10
2018-04-12T18:15:04.714Z,2.78
2018-04-12T18:17:33.617Z,2.20
2018-04-12T18:20:02.729Z,3.00
2018-04-12T18:22:31.719Z,2.10
2018-04-12T18:25:00.621Z,2.65
2018-04-12T18:27:29.521Z,2.10
2018-04-12T18:29:58.448Z,2.08
2018-04-12T18:32:27.520Z,2.00
2018-04-12T18:34:56.422Z,2.17
2018-04-12T18:37:25.321Z,2.22
2018-04-12T18:39:54.228Z,2.60
2018-04-12T18:42:23.313Z,3.20
2018-04-12T18:44:52.217Z,2.72
2018-04-12T18:47:21.122Z,2.90
2018-04-12T18:49:50.053Z,2.62
2018-04-12T18:52:18.957Z,7.28
2018-04-12T18:54:48.017Z,3.20
2018-04-12T18:57:17.057Z,2.40
2018-04-12T18:59:45.960Z,5.45
2018-04-12T19:02:14.857Z,4.47
2018-04-12T19:04:43.795Z,4.90
2018-04-12T19:07:12.709Z,5.00
2018-04-12T19:09:41.626Z,6.05
2018-04-12T19:12:10.612Z,4.90
2018-04-12T19:14:39.526Z,6.55
2018-04-12T19:17:08.601Z,3.90
2018-04-12T19:19:37.510Z,3.47
2018-04-12T19:22:06.409Z,2.00
2018-04-12T19:24:35.308Z,1.42
2018-04-12T19:27:04.230Z,1.98
2018-04-12T19:29:33.189Z,2.20
2018-04-12T19:32:02.100Z,2.97
2018-04-12T19:34:31.010Z,5.45
2018-04-12T19:36:59.949Z,11.52
2018-04-12T19:39:28.857Z,11.50
2018-04-12T19:41:57.791Z,6.05
2018-04-12T19:44:26.829Z,6.70
2018-04-12T19:46:55.731Z,4.80
2018-04-12T19:49:24.698Z,4.25
2018-04-12T19:51:53.627Z,4.90
2018-04-12T19:54:22.538Z,4.53
2018-04-12T19:56:51.674Z,3.90
2018-04-12T19:59:20.581Z,4.65
2018-04-12T20:01:49.497Z,3.85
2018-04-12T20:04:18.397Z,3.15
2018-04-12T20:06:47.309Z,4.93
2018-04-12T20:09:16.214Z,3.60
2018-04-12T20:11:45.165Z,4.00
2018-04-12T20:14:14.093Z,4.10
2018-04-12T20:16:42.992Z,4.00
2018-04-12T20:19:11.907Z,3.80
2018-04-12T20:21:40.913Z,4.20
2018-04-12T20:24:09.877Z,3.70
2018-04-12T20:26:38.780Z,4.65
2018-04-12T20:29:07.685Z,4.12
2018-04-12T20:31:36.591Z,3.55
2018-04-12T20:34:05.583Z,3.67
2018-04-12T20:36:34.540Z,3.25
2018-04-12T20:39:03.492Z,2.95
2018-04-12T20:41:32.376Z,2.67
2018-04-12T20:44:01.386Z,2.40
2018-04-12T20:46:30.288Z,1.52
2018-04-12T20:48:59.388Z,1.80
2018-04-12T20:51:28.317Z,2.95
2018-04-12T20:53:57.226Z,2.45
2018-04-12T20:56:26.470Z,2.62
2018-04-12T20:58:55.388Z,1.80
2018-04-12T21:01:24.288Z,5.32
2018-04-12T21:03:53.191Z,3.40
2018-04-12T21:06:22.371Z,2.80
2018-04-12T21:08:51.561Z,3.15
2018-04-12T21:11:20.465Z,3.80
2018-04-12T21:13:49.375Z,5.90
2018-04-12T21:16:18.313Z,7.05
2018-04-12T21:18:47.226Z,13.95
2018-04-12T21:21:16.407Z,6.10
2018-04-12T21:23:45.305Z,6.40
2018-04-12T21:26:14.213Z,3.20
2018-04-12T21:28:43.334Z,2.87
2018-04-12T21:31:12.237Z,2.78
2018-04-12T21:33:41.133Z,1.80
2018-04-12T21:36:10.041Z,2.20
2018-04-12T21:38:38.944Z,2.62
2018-04-12T21:41:08.001Z,4.05
2018-04-12T21:43:36.904Z,5.20
2018-04-12T21:46:05.917Z,7.37
2018-04-12T21:48:34.825Z,6.15
2018-04-12T21:51:03.729Z,5.07
2018-04-12T21:53:32.693Z,4.72
2018-04-12T21:56:01.603Z,2.90
2018-04-12T21:58:30.513Z,4.57
2018-04-12T22:00:59.420Z,3.60
2018-04-12T22:03:28.321Z,3.15
2018-04-12T22:05:57.458Z,3.90
2018-04-12T22:08:26.400Z,3.78
2018-04-12T22:10:55.304Z,3.97
2018-04-12T22:13:24.243Z,3.55
2018-04-12T22:15:53.158Z,3.20
2018-04-12T22:18:22.061Z,2.65
2018-04-12T22:20:50.992Z,3.35
2018-04-12T22:23:19.902Z,2.72
2018-04-12T22:25:48.809Z,2.40
2018-04-12T22:28:17.764Z,2.58
2018-04-12T22:30:46.784Z,1.80
2018-04-12T22:33:15.688Z,2.30
2018-04-12T22:35:44.596Z,2.58
2018-04-12T22:38:13.505Z,3.12
2018-04-12T22:40:42.411Z,2.20
2018-04-12T22:43:11.313Z,2.30
2018-04-12T22:45:40.216Z,2.87
2018-04-12T22:48:09.420Z,2.22
2018-04-12T22:50:38.333Z,1.80
2018-04-12T22:53:07.246Z,2.08
2018-04-12T22:55:36.148Z,2.10
2018-04-12T22:58:05.046Z,4.10
2018-04-12T23:00:34.013Z,3.35
2018-04-12T23:03:02.954Z,3.67
2018-04-12T23:05:31.848Z,4.60
2018-04-12T23:08:00.805Z,4.45
2018-04-12T23:10:29.895Z,6.80
2018-04-12T23:12:58.797Z,7.43
2018-04-12T23:15:27.713Z,3.90
2018-04-12T23:17:56.689Z,5.60
2018-04-12T23:20:25.792Z,7.60
2018-04-12T23:22:54.732Z,5.45
2018-04-12T23:25:23.632Z,3.05
2018-04-12T23:27:52.540Z,2.60
2018-04-12T23:30:21.444Z,2.00
2018-04-12T23:32:50.378Z,2.45
2018-04-12T23:35:19.281Z,2.85
2018-04-12T23:37:48.184Z,5.30
2018-04-12T23:40:17.148Z,8.20
2018-04-12T23:42:46.061Z,6.75
2018-04-12T23:45:14.960Z,4.00
2018-04-12T23:47:43.872Z,8.32
2018-04-12T23:50:12.776Z,11.12
2018-04-12T23:52:42.002Z,15.15
2018-04-12T23:55:10.957Z,13.05
2018-04-12T23:57:39.871Z,12.05
